createdAt,value
2019-02-12T00:00:57.846Z,1027.74
2019-02-12T00:01:57.830Z,1027.73
2019-02-12T00:02:58.749Z,1027.75
2019-02-12T00:03:58.745Z,1027.80
2019-02-12T00:04:57.783Z,1027.82
2019-02-12T00:05:57.755Z,1027.91
2019-02-12T00:06:57.716Z,1027.92
2019-02-12T00:07:57.694Z,1027.96
2019-02-12T00:08:57.684Z,1027.98
2019-02-12T00:09:57.644Z,1028.00
2019-02-12T00:10:57.624Z,1027.99
2019-02-12T00:11:59.235Z,1028.03
2019-02-12T00:12:57.573Z,1028.03
2019-02-12T00:13:57.548Z,1028.07
2019-02-12T00:14:59.238Z,1028.07
2019-02-12T00:15:57.524Z,1028.08
2019-02-12T00:16:57.486Z,1028.09
2019-02-12T00:17:57.473Z,1028.16
2019-02-12T00:18:57.464Z,1028.18
2019-02-12T00:19:57.415Z,1028.20
2019-02-12T00:20:57.394Z,1028.26
2019-02-12T00:21:57.384Z,1028.26
2019-02-12T00:22:57.346Z,1028.37
2019-02-12T00:23:57.339Z,1028.32
2019-02-12T00:24:57.297Z,1028.33
2019-02-12T00:25:57.293Z,1028.34
2019-02-12T00:26:57.741Z,1028.31
2019-02-12T00:27:57.256Z,1028.30
2019-02-12T00:28:57.769Z,1028.28
2019-02-12T00:29:57.185Z,1028.28
2019-02-12T00:30:57.165Z,1028.28
2019-02-12T00:31:57.140Z,1028.29
2019-02-12T00:32:57.150Z,1028.29
2019-02-12T00:33:57.098Z,1028.25
2019-02-12T00:34:57.071Z,1028.26
2019-02-12T00:35:57.056Z,1028.27
2019-02-12T00:36:57.039Z,1028.26
2019-02-12T00:37:57.012Z,1028.25
2019-02-12T00:38:57.002Z,1028.27
2019-02-12T00:39:56.962Z,1028.24
2019-02-12T00:40:56.941Z,1028.28
2019-02-12T00:41:56.916Z,1028.29
2019-02-12T00:42:56.887Z,1028.32
2019-02-12T00:43:56.870Z,1028.33
2019-02-12T00:44:56.861Z,1028.32
2019-02-12T00:45:56.818Z,1028.32
2019-02-12T00:46:56.802Z,1028.32
2019-02-12T00:47:56.774Z,1028.37
2019-02-12T00:48:56.756Z,1028.35
2019-02-12T00:49:56.747Z,1028.30
2019-02-12T00:50:56.707Z,1028.33
2019-02-12T00:51:56.685Z,1028.33
2019-02-12T00:52:56.660Z,1028.35
2019-02-12T00:53:56.634Z,1028.39
2019-02-12T00:54:56.642Z,1028.36
2019-02-12T00:55:56.616Z,1028.36
2019-02-12T00:56:56.570Z,1028.37
2019-02-12T00:57:56.540Z,1028.38
2019-02-12T00:58:56.525Z,1028.41
2019-02-12T00:59:56.518Z,1028.41
2019-02-12T01:00:56.479Z,1028.42
2019-02-12T01:01:57.241Z,1028.41
2019-02-12T01:02:56.441Z,1028.44
2019-02-12T01:03:56.407Z,1028.42
2019-02-12T01:04:56.385Z,1028.48
2019-02-12T01:05:56.382Z,1028.46
2019-02-12T01:06:56.354Z,1028.50
2019-02-12T01:07:56.320Z,1028.53
2019-02-12T01:08:56.290Z,1028.52
2019-02-12T01:09:56.272Z,1028.55
2019-02-12T01:10:56.255Z,1028.56
2019-02-12T01:11:56.764Z,1028.53
2019-02-12T01:12:56.218Z,1028.52
2019-02-12T01:13:56.775Z,1028.55
2019-02-12T01:14:56.160Z,1028.54
2019-02-12T01:15:56.134Z,1028.55
2019-02-12T01:16:56.128Z,1028.57
2019-02-12T01:17:57.742Z,1028.51
2019-02-12T01:18:56.071Z,1028.50
2019-02-12T01:19:56.054Z,1028.41
2019-02-12T01:20:56.059Z,1028.44
2019-02-12T01:21:55.996Z,1028.45
2019-02-12T01:22:55.979Z,1028.44
2019-02-12T01:23:55.951Z,1028.53
2019-02-12T01:24:55.929Z,1028.47
2019-02-12T01:25:55.921Z,1028.49
2019-02-12T01:26:55.880Z,1028.51
2019-02-12T01:27:55.854Z,1028.50
2019-02-12T01:28:55.830Z,1028.50
2019-02-12T01:29:55.810Z,1028.49
2019-02-12T01:30:55.786Z,1028.44
2019-02-12T01:31:55.791Z,1028.43
2019-02-12T01:32:55.762Z,1028.45
2019-02-12T01:33:55.723Z,1028.49
2019-02-12T01:34:55.700Z,1028.49
2019-02-12T01:35:55.667Z,1028.49
2019-02-12T01:36:55.656Z,1028.49
2019-02-12T01:37:55.650Z,1028.43
2019-02-12T01:38:55.603Z,1028.46
2019-02-12T01:39:55.581Z,1028.44
2019-02-12T01:40:55.552Z,1028.50
2019-02-12T01:41:55.532Z,1028.46
2019-02-12T01:42:55.525Z,1028.49
2019-02-12T01:43:55.484Z,1028.46
2019-02-12T01:44:55.465Z,1028.51
2019-02-12T01:45:55.442Z,1028.47
2019-02-12T01:46:55.435Z,1028.42
2019-02-12T01:47:55.396Z,1028.39
2019-02-12T01:48:55.373Z,1028.45
2019-02-12T01:49:55.349Z,1028.45
2019-02-12T01:50:55.322Z,1028.46
2019-02-12T01:51:55.302Z,1028.50
2019-02-12T01:52:55.289Z,1028.49
2019-02-12T01:53:55.268Z,1028.47
2019-02-12T01:54:55.237Z,1028.49
2019-02-12T01:55:55.206Z,1028.48
2019-02-12T01:56:55.199Z,1028.48
2019-02-12T01:57:55.164Z,1028.46
2019-02-12T01:58:55.135Z,1028.54
2019-02-12T01:59:55.136Z,1028.54
2019-02-12T02:00:55.094Z,1028.58
2019-02-12T02:01:55.075Z,1028.53
2019-02-12T02:02:55.063Z,1028.55
2019-02-12T02:03:55.022Z,1028.59
2019-02-12T02:04:55.004Z,1028.56
2019-02-12T02:05:54.979Z,1028.61
2019-02-12T02:06:54.949Z,1028.63
2019-02-12T02:07:54.951Z,1028.61
2019-02-12T02:08:54.911Z,1028.62
2019-02-12T02:09:54.962Z,1028.64
2019-02-12T02:10:54.859Z,1028.66
2019-02-12T02:11:54.839Z,1028.66
2019-02-12T02:12:54.810Z,1028.69
2019-02-12T02:13:54.788Z,1028.67
2019-02-12T02:14:54.785Z,1028.69
2019-02-12T02:15:54.743Z,1028.65
2019-02-12T02:16:54.720Z,1028.64
2019-02-12T02:17:54.709Z,1028.62
2019-02-12T02:18:54.675Z,1028.64
2019-02-12T02:19:54.652Z,1028.68
2019-02-12T02:20:54.645Z,1028.68
2019-02-12T02:21:54.601Z,1028.63
2019-02-12T02:22:54.580Z,1028.65
2019-02-12T02:23:54.560Z,1028.70
2019-02-12T02:24:54.558Z,1028.66
2019-02-12T02:25:54.527Z,1028.69
2019-02-12T02:26:54.503Z,1028.65
2019-02-12T02:27:54.462Z,1028.65
2019-02-12T02:28:54.444Z,1028.68
2019-02-12T02:29:54.419Z,1028.66
2019-02-12T02:30:54.415Z,1028.66
2019-02-12T02:31:54.371Z,1028.65
2019-02-12T02:32:54.361Z,1028.65
2019-02-12T02:33:54.328Z,1028.63
2019-02-12T02:34:54.300Z,1028.63
2019-02-12T02:35:54.278Z,1028.62
2019-02-12T02:36:54.272Z,1028.63
2019-02-12T02:37:54.230Z,1028.61
2019-02-12T02:38:54.204Z,1028.65
2019-02-12T02:39:54.184Z,1028.59
2019-02-12T02:40:54.161Z,1028.63
2019-02-12T02:41:54.159Z,1028.64
2019-02-12T02:42:54.114Z,1028.60
2019-02-12T02:43:54.092Z,1028.60
2019-02-12T02:44:54.066Z,1028.61
2019-02-12T02:45:54.045Z,1028.59
2019-02-12T02:46:54.017Z,1028.64
2019-02-12T02:47:54.028Z,1028.62
2019-02-12T02:48:53.972Z,1028.69
2019-02-12T02:49:53.945Z,1028.68
2019-02-12T02:50:53.921Z,1028.67
2019-02-12T02:51:54.275Z,1028.65
2019-02-12T02:52:53.892Z,1028.63
2019-02-12T02:53:53.888Z,1028.65
2019-02-12T02:54:53.837Z,1028.64
2019-02-12T02:55:53.813Z,1028.63
2019-02-12T02:56:53.783Z,1028.65
2019-02-12T02:57:53.784Z,1028.68
2019-02-12T02:58:53.739Z,1028.73
2019-02-12T02:59:53.716Z,1028.76
2019-02-12T03:00:53.695Z,1028.73
2019-02-12T03:01:53.675Z,1028.71
2019-02-12T03:02:53.641Z,1028.72
2019-02-12T03:03:53.637Z,1028.74
2019-02-12T03:04:53.600Z,1028.74
2019-02-12T03:05:53.575Z,1028.78
2019-02-12T03:06:53.555Z,1028.82
2019-02-12T03:07:53.524Z,1028.81
2019-02-12T03:08:53.848Z,1028.81
2019-02-12T03:09:53.493Z,1028.78
2019-02-12T03:10:53.458Z,1028.80
2019-02-12T03:11:53.433Z,1028.76
2019-02-12T03:12:53.412Z,1028.78
2019-02-12T03:13:53.413Z,1028.77
2019-02-12T03:14:53.362Z,1028.82
2019-02-12T03:15:53.362Z,1028.79
2019-02-12T03:16:53.331Z,1028.82
2019-02-12T03:17:53.295Z,1028.81
2019-02-12T03:18:53.271Z,1028.80
2019-02-12T03:19:53.251Z,1028.77
2019-02-12T03:20:53.228Z,1028.76
2019-02-12T03:21:53.227Z,1028.80
2019-02-12T03:22:53.179Z,1028.75
2019-02-12T03:23:53.155Z,1028.74
2019-02-12T03:24:53.195Z,1028.75
2019-02-12T03:25:53.105Z,1028.77
2019-02-12T03:26:53.102Z,1028.79
2019-02-12T03:27:53.062Z,1028.77
2019-02-12T03:28:53.039Z,1028.78
2019-02-12T03:29:53.014Z,1028.80
2019-02-12T03:30:52.993Z,1028.80
2019-02-12T03:31:52.975Z,1028.79
2019-02-12T03:32:52.969Z,1028.80
2019-02-12T03:33:52.920Z,1028.79
2019-02-12T03:34:52.897Z,1028.81
2019-02-12T03:35:52.873Z,1028.84
2019-02-12T03:36:52.857Z,1028.82
2019-02-12T03:37:52.845Z,1028.84
2019-02-12T03:38:52.800Z,1028.80
2019-02-12T03:39:52.777Z,1028.76
2019-02-12T03:40:52.763Z,1028.77
2019-02-12T03:41:52.729Z,1028.80
2019-02-12T03:42:52.711Z,1028.79
2019-02-12T03:43:52.705Z,1028.84
2019-02-12T03:44:52.663Z,1028.82
2019-02-12T03:45:52.639Z,1028.79
2019-02-12T03:46:52.612Z,1028.80
2019-02-12T03:47:52.597Z,1028.82
2019-02-12T03:48:52.568Z,1028.89
2019-02-12T03:49:52.562Z,1028.86
2019-02-12T03:50:52.541Z,1028.90
2019-02-12T03:51:52.499Z,1028.93
2019-02-12T03:52:52.476Z,1028.94
2019-02-12T03:53:52.453Z,1028.92
2019-02-12T03:54:52.427Z,1028.92
2019-02-12T03:55:52.405Z,1028.90
2019-02-12T03:56:52.394Z,1028.94
2019-02-12T03:57:53.293Z,1028.96
2019-02-12T03:58:52.335Z,1028.95
2019-02-12T03:59:52.311Z,1028.99
2019-02-12T04:00:52.302Z,1029.03
2019-02-12T04:01:52.285Z,1028.98
2019-02-12T04:02:52.243Z,1028.99
2019-02-12T04:03:52.220Z,1029.01
2019-02-12T04:04:52.231Z,1029.01
2019-02-12T04:05:52.208Z,1029.04
2019-02-12T04:06:52.151Z,1029.04
2019-02-12T04:07:52.180Z,1029.07
2019-02-12T04:08:52.104Z,1029.05
2019-02-12T04:09:52.081Z,1029.06
2019-02-12T04:10:52.059Z,1029.02
2019-02-12T04:11:52.034Z,1029.02
2019-02-12T04:12:52.009Z,1028.93
2019-02-12T04:13:52.000Z,1028.96
2019-02-12T04:14:51.978Z,1029.00
2019-02-12T04:15:51.937Z,1028.99
2019-02-12T04:16:51.912Z,1029.02
2019-02-12T04:17:51.891Z,1029.01
2019-02-12T04:18:51.868Z,1029.06
2019-02-12T04:19:51.842Z,1029.04
2019-02-12T04:20:51.831Z,1029.03
2019-02-12T04:21:51.796Z,1029.04
2019-02-12T04:22:51.772Z,1029.05
2019-02-12T04:23:51.748Z,1029.06
2019-02-12T04:24:51.738Z,1029.09
2019-02-12T04:25:51.726Z,1029.11
2019-02-12T04:26:51.673Z,1029.10
2019-02-12T04:27:51.653Z,1029.09
2019-02-12T04:28:51.635Z,1029.11
2019-02-12T04:29:51.606Z,1029.11
2019-02-12T04:30:51.582Z,1029.15
2019-02-12T04:31:51.577Z,1029.17
2019-02-12T04:32:51.537Z,1029.18
2019-02-12T04:33:51.513Z,1029.18
2019-02-12T04:34:51.486Z,1029.19
2019-02-12T04:35:51.473Z,1029.18
2019-02-12T04:36:51.440Z,1029.15
2019-02-12T04:37:51.446Z,1029.17
2019-02-12T04:38:51.401Z,1029.14
2019-02-12T04:39:51.369Z,1029.17
2019-02-12T04:40:51.344Z,1029.19
2019-02-12T04:41:51.322Z,1029.16
2019-02-12T04:42:51.314Z,1029.11
2019-02-12T04:43:51.273Z,1029.07
2019-02-12T04:44:51.249Z,1029.06
2019-02-12T04:45:51.246Z,1029.06
2019-02-12T04:46:51.202Z,1029.04
2019-02-12T04:47:51.175Z,1029.05
2019-02-12T04:48:51.149Z,1029.08
2019-02-12T04:49:51.131Z,1029.05
2019-02-12T04:50:51.099Z,1029.15
2019-02-12T04:51:51.100Z,1029.11
2019-02-12T04:52:51.053Z,1029.10
2019-02-12T04:53:51.037Z,1029.08
2019-02-12T04:54:51.010Z,1029.08
2019-02-12T04:55:51.013Z,1029.09
2019-02-12T04:56:50.978Z,1029.09
2019-02-12T04:57:51.004Z,1029.07
2019-02-12T04:58:50.911Z,1029.07
2019-02-12T04:59:50.894Z,1029.07
2019-02-12T05:00:50.868Z,1029.07
2019-02-12T05:01:50.855Z,1029.06
2019-02-12T05:02:50.838Z,1029.06
2019-02-12T05:03:50.793Z,1029.03
2019-02-12T05:04:50.772Z,1029.02
2019-02-12T05:05:50.743Z,1029.07
2019-02-12T05:06:50.722Z,1029.07
2019-02-12T05:07:50.718Z,1029.03
2019-02-12T05:08:50.673Z,1029.00
2019-02-12T05:09:50.651Z,1029.02
2019-02-12T05:10:50.643Z,1029.04
2019-02-12T05:11:50.608Z,1029.04
2019-02-12T05:12:50.579Z,1029.07
2019-02-12T05:13:50.555Z,1029.06
2019-02-12T05:14:50.547Z,1029.06
2019-02-12T05:15:50.519Z,1029.06
2019-02-12T05:16:50.499Z,1029.05
2019-02-12T05:17:50.460Z,1029.04
2019-02-12T05:18:50.436Z,1029.04
2019-02-12T05:19:50.414Z,1029.09
2019-02-12T05:20:50.391Z,1029.09
2019-02-12T05:21:50.378Z,1029.15
2019-02-12T05:22:50.339Z,1029.17
2019-02-12T05:23:50.333Z,1029.16
2019-02-12T05:24:50.293Z,1029.13
2019-02-12T05:25:50.271Z,1029.12
2019-02-12T05:26:50.255Z,1029.14
2019-02-12T05:27:50.230Z,1029.14
2019-02-12T05:28:50.221Z,1029.17
2019-02-12T05:29:50.185Z,1029.22
2019-02-12T05:30:50.149Z,1029.20
2019-02-12T05:31:50.137Z,1029.19
2019-02-12T05:32:50.112Z,1029.19
2019-02-12T05:33:50.097Z,1029.22
2019-02-12T05:34:50.061Z,1029.21
2019-02-12T05:35:50.028Z,1029.19
2019-02-12T05:36:50.013Z,1029.22
2019-02-12T05:37:49.983Z,1029.26
2019-02-12T05:38:49.956Z,1029.25
2019-02-12T05:39:49.958Z,1029.28
2019-02-12T05:40:49.927Z,1029.28
2019-02-12T05:41:49.904Z,1029.27
2019-02-12T05:42:49.865Z,1029.27
2019-02-12T05:43:49.840Z,1029.27
2019-02-12T05:44:49.827Z,1029.30
2019-02-12T05:45:49.824Z,1029.31
2019-02-12T05:46:49.768Z,1029.26
2019-02-12T05:47:49.749Z,1029.28
2019-02-12T05:48:49.722Z,1029.29
2019-02-12T05:49:49.715Z,1029.28
2019-02-12T05:50:49.677Z,1029.29
2019-02-12T05:51:49.652Z,1029.29
2019-02-12T05:52:54.268Z,1029.28
2019-02-12T05:53:49.624Z,1029.28
2019-02-12T05:54:49.584Z,1029.30
2019-02-12T05:55:49.585Z,1029.32
2019-02-12T05:56:49.537Z,1029.32
2019-02-12T05:57:49.514Z,1029.32
2019-02-12T05:58:49.483Z,1029.32
2019-02-12T05:59:49.468Z,1029.28
2019-02-12T06:00:49.455Z,1029.31
2019-02-12T06:01:49.411Z,1029.31
2019-02-12T06:02:49.391Z,1029.29
2019-02-12T06:03:49.365Z,1029.31
2019-02-12T06:04:49.339Z,1029.30
2019-02-12T06:05:49.334Z,1029.26
2019-02-12T06:06:49.323Z,1029.22
2019-02-12T06:07:49.271Z,1029.24
2019-02-12T06:08:49.247Z,1029.17
2019-02-12T06:09:49.222Z,1029.16
2019-02-12T06:10:49.199Z,1029.18
2019-02-12T06:11:49.178Z,1029.18
2019-02-12T06:12:49.170Z,1029.16
2019-02-12T06:13:49.125Z,1029.14
2019-02-12T06:14:49.761Z,1029.15
2019-02-12T06:15:49.077Z,1029.20
2019-02-12T06:16:49.055Z,1029.19
2019-02-12T06:17:49.051Z,1029.17
2019-02-12T06:18:49.026Z,1029.15
2019-02-12T06:19:48.988Z,1029.12
2019-02-12T06:20:48.972Z,1029.11
2019-02-12T06:21:48.937Z,1029.07
2019-02-12T06:22:48.919Z,1029.12
2019-02-12T06:23:48.923Z,1029.15
2019-02-12T06:24:48.882Z,1029.17
2019-02-12T06:25:48.840Z,1029.18
2019-02-12T06:26:48.820Z,1029.19
2019-02-12T06:27:48.790Z,1029.15
2019-02-12T06:28:48.787Z,1029.19
2019-02-12T06:29:48.752Z,1029.14
2019-02-12T06:30:48.730Z,1029.16
2019-02-12T06:31:48.703Z,1029.18
2019-02-12T06:32:48.674Z,1029.17
2019-02-12T06:33:48.683Z,1029.14
2019-02-12T06:34:48.655Z,1029.18
2019-02-12T06:35:48.614Z,1029.19
2019-02-12T06:36:48.578Z,1029.17
2019-02-12T06:37:48.555Z,1029.19
2019-02-12T06:38:48.548Z,1029.17
2019-02-12T06:39:48.519Z,1029.15
2019-02-12T06:40:49.351Z,1029.14
2019-02-12T06:41:48.463Z,1029.16
2019-02-12T06:42:48.448Z,1029.16
2019-02-12T06:43:48.428Z,1029.18
2019-02-12T06:44:48.395Z,1029.16
2019-02-12T06:45:48.367Z,1029.20
2019-02-12T06:46:48.339Z,1029.20
2019-02-12T06:47:49.328Z,1029.21
2019-02-12T06:48:48.303Z,1029.21
2019-02-12T06:49:48.269Z,1029.25
2019-02-12T06:50:48.253Z,1029.27
2019-02-12T06:51:48.257Z,1029.22
2019-02-12T06:52:48.201Z,1029.26
2019-02-12T06:53:48.172Z,1029.32
2019-02-12T06:54:48.171Z,1029.27
2019-02-12T06:55:48.129Z,1029.28
2019-02-12T06:56:48.119Z,1029.29
2019-02-12T06:57:48.088Z,1029.31
2019-02-12T06:58:48.059Z,1029.29
2019-02-12T06:59:48.050Z,1029.31
2019-02-12T07:00:48.011Z,1029.36
2019-02-12T07:01:47.997Z,1029.34
2019-02-12T07:02:47.960Z,1029.36
2019-02-12T07:03:47.943Z,1029.35
2019-02-12T07:04:47.918Z,1029.44
2019-02-12T07:05:47.913Z,1029.42
2019-02-12T07:06:47.868Z,1029.40
2019-02-12T07:07:47.842Z,1029.40
2019-02-12T07:08:47.822Z,1029.41
2019-02-12T07:09:47.815Z,1029.40
2019-02-12T07:10:47.788Z,1029.42
2019-02-12T07:11:47.777Z,1029.44
2019-02-12T07:12:47.726Z,1029.46
2019-02-12T07:13:47.704Z,1029.50
2019-02-12T07:14:47.686Z,1029.50
2019-02-12T07:15:47.675Z,1029.55
2019-02-12T07:16:47.653Z,1029.56
2019-02-12T07:17:47.612Z,1029.61
2019-02-12T07:18:47.590Z,1029.59
2019-02-12T07:19:47.574Z,1029.62
2019-02-12T07:20:47.540Z,1029.64
2019-02-12T07:21:47.520Z,1029.64
2019-02-12T07:22:47.510Z,1029.67
2019-02-12T07:23:47.470Z,1029.68
2019-02-12T07:24:47.450Z,1029.68
2019-02-12T07:25:47.430Z,1029.73
2019-02-12T07:26:47.403Z,1029.77
2019-02-12T07:27:47.396Z,1029.80
2019-02-12T07:28:47.367Z,1029.79
2019-02-12T07:29:47.330Z,1029.83
2019-02-12T07:30:47.309Z,1029.84
2019-02-12T07:31:47.282Z,1029.88
2019-02-12T07:32:47.285Z,1029.88
2019-02-12T07:33:47.258Z,1029.92
2019-02-12T07:34:47.231Z,1029.94
2019-02-12T07:35:47.192Z,1029.95
2019-02-12T07:36:47.168Z,1029.97
2019-02-12T07:37:47.145Z,1030.01
2019-02-12T07:38:47.121Z,1030.02
2019-02-12T07:39:47.193Z,1030.04
2019-02-12T07:40:47.083Z,1030.05
2019-02-12T07:41:47.065Z,1030.06
2019-02-12T07:42:47.034Z,1030.06
2019-02-12T07:43:47.003Z,1030.06
2019-02-12T07:44:46.984Z,1030.11
2019-02-12T07:45:46.977Z,1030.09
2019-02-12T07:46:46.956Z,1030.21
2019-02-12T07:47:46.923Z,1030.17
2019-02-12T07:48:46.902Z,1030.27
2019-02-12T07:49:46.863Z,1030.29
2019-02-12T07:50:46.875Z,1030.29
2019-02-12T07:51:46.833Z,1030.28
2019-02-12T07:52:46.800Z,1030.33
2019-02-12T07:53:46.775Z,1030.35
2019-02-12T07:54:46.750Z,1030.33
2019-02-12T07:55:46.739Z,1030.36
2019-02-12T07:56:46.727Z,1030.41
2019-02-12T07:57:47.273Z,1030.45
2019-02-12T07:58:46.663Z,1030.47
2019-02-12T07:59:46.649Z,1030.53
2019-02-12T08:00:46.628Z,1030.55
2019-02-12T08:01:46.613Z,1030.59
2019-02-12T08:02:47.278Z,1030.67
2019-02-12T08:03:46.540Z,1030.67
2019-02-12T08:04:46.526Z,1030.71
2019-02-12T08:05:46.497Z,1030.71
2019-02-12T08:06:47.268Z,1030.70
2019-02-12T08:07:47.268Z,1030.75
2019-02-12T08:08:46.428Z,1030.79
2019-02-12T08:09:46.405Z,1030.71
2019-02-12T08:10:46.412Z,1030.80
2019-02-12T08:11:46.363Z,1030.76
2019-02-12T08:12:46.393Z,1030.80
2019-02-12T08:13:46.337Z,1030.78
2019-02-12T08:14:46.298Z,1030.74
2019-02-12T08:15:46.268Z,1030.75
2019-02-12T08:16:46.254Z,1030.77
2019-02-12T08:17:46.225Z,1030.78
2019-02-12T08:18:46.215Z,1030.75
2019-02-12T08:19:46.196Z,1030.80
2019-02-12T08:20:46.165Z,1030.80
2019-02-12T08:21:46.131Z,1030.81
2019-02-12T08:22:46.130Z,1030.84
2019-02-12T08:23:46.091Z,1030.91
2019-02-12T08:24:46.097Z,1030.92
2019-02-12T08:25:46.048Z,1030.94
2019-02-12T08:26:46.047Z,1030.95
2019-02-12T08:27:45.997Z,1030.94
2019-02-12T08:28:46.003Z,1030.98
2019-02-12T08:29:45.979Z,1031.00
2019-02-12T08:30:45.930Z,1030.97
2019-02-12T08:31:45.908Z,1031.01
2019-02-12T08:32:45.887Z,1030.99
2019-02-12T08:33:47.770Z,1031.00
2019-02-12T08:34:45.858Z,1030.99
2019-02-12T08:35:45.818Z,1030.98
2019-02-12T08:36:45.819Z,1030.94
2019-02-12T08:37:46.315Z,1030.97
2019-02-12T08:38:45.775Z,1030.99
2019-02-12T08:39:45.728Z,1031.00
2019-02-12T08:40:45.721Z,1031.00
2019-02-12T08:41:45.683Z,1031.03
2019-02-12T08:42:45.669Z,1031.02
2019-02-12T08:43:45.638Z,1031.02
2019-02-12T08:44:45.618Z,1030.97
2019-02-12T08:45:45.615Z,1030.97
2019-02-12T08:46:45.564Z,1031.00
2019-02-12T08:47:45.549Z,1031.03
2019-02-12T08:48:45.534Z,1031.07
2019-02-12T08:49:45.504Z,1031.08
2019-02-12T08:50:45.497Z,1031.01
2019-02-12T08:51:46.316Z,1031.07
2019-02-12T08:52:45.435Z,1031.07
2019-02-12T08:53:50.600Z,1031.11
2019-02-12T08:54:45.392Z,1031.10
2019-02-12T08:55:46.361Z,1031.14
2019-02-12T08:56:47.275Z,1031.16
2019-02-12T08:57:45.327Z,1031.14
2019-02-12T08:58:45.298Z,1031.13
2019-02-12T08:59:45.773Z,1031.11
2019-02-12T09:00:45.257Z,1031.11
2019-02-12T09:01:45.242Z,1031.14
2019-02-12T09:02:46.273Z,1031.07
2019-02-12T09:03:45.200Z,1031.07
2019-02-12T09:04:45.186Z,1031.04
2019-02-12T09:05:45.149Z,1031.08
2019-02-12T09:06:45.126Z,1031.09
2019-02-12T09:07:45.106Z,1031.07
2019-02-12T09:08:45.102Z,1031.09
2019-02-12T09:09:45.809Z,1031.13
2019-02-12T09:10:45.033Z,1031.13
2019-02-12T09:11:45.022Z,1031.20
2019-02-12T09:12:45.018Z,1031.13
2019-02-12T09:13:44.979Z,1031.14
2019-02-12T09:14:44.952Z,1031.12
2019-02-12T09:15:44.930Z,1031.13
2019-02-12T09:16:45.817Z,1031.14
2019-02-12T09:17:44.913Z,1031.13
2019-02-12T09:18:44.864Z,1031.13
2019-02-12T09:19:44.843Z,1031.10
2019-02-12T09:20:44.845Z,1031.14
2019-02-12T09:21:44.799Z,1031.22
2019-02-12T09:22:44.782Z,1031.20
2019-02-12T09:23:44.757Z,1031.22
2019-02-12T09:24:44.729Z,1031.24
2019-02-12T09:25:44.709Z,1031.27
2019-02-12T09:26:44.705Z,1031.27
2019-02-12T09:27:44.675Z,1031.27
2019-02-12T09:28:44.647Z,1031.19
2019-02-12T09:29:45.276Z,1031.24
2019-02-12T09:30:44.600Z,1031.19
2019-02-12T09:31:44.597Z,1031.24
2019-02-12T09:32:44.555Z,1031.25
2019-02-12T09:33:44.535Z,1031.23
2019-02-12T09:34:44.511Z,1031.19
2019-02-12T09:35:44.491Z,1031.20
2019-02-12T09:36:44.484Z,1031.18
2019-02-12T09:37:44.466Z,1031.16
2019-02-12T09:38:44.421Z,1031.24
2019-02-12T09:39:44.407Z,1031.24
2019-02-12T09:40:44.381Z,1031.29
2019-02-12T09:41:44.354Z,1031.29
2019-02-12T09:42:44.334Z,1031.30
2019-02-12T09:43:46.277Z,1031.31
2019-02-12T09:44:44.302Z,1031.26
2019-02-12T09:45:44.273Z,1031.31
2019-02-12T09:46:44.253Z,1031.30
2019-02-12T09:47:44.233Z,1031.31
2019-02-12T09:48:45.282Z,1031.28
2019-02-12T09:49:44.178Z,1031.30
2019-02-12T09:50:44.156Z,1031.32
2019-02-12T09:51:44.147Z,1031.32
2019-02-12T09:52:44.117Z,1031.31
2019-02-12T09:53:44.096Z,1031.30
2019-02-12T09:54:44.084Z,1031.25
2019-02-12T09:55:44.064Z,1031.31
2019-02-12T09:56:44.049Z,1031.32
2019-02-12T09:57:44.004Z,1031.38
2019-02-12T09:58:43.985Z,1031.37
2019-02-12T09:59:43.972Z,1031.44
2019-02-12T10:00:43.948Z,1031.39
2019-02-12T10:01:43.920Z,1031.39
2019-02-12T10:02:43.916Z,1031.43
2019-02-12T10:03:43.875Z,1031.44
2019-02-12T10:04:43.855Z,1031.45
2019-02-12T10:05:43.849Z,1031.43
2019-02-12T10:06:43.810Z,1031.48
2019-02-12T10:07:43.847Z,1031.48
2019-02-12T10:08:43.789Z,1031.49
2019-02-12T10:09:43.769Z,1031.51
2019-02-12T10:10:45.491Z,1031.46
2019-02-12T10:11:43.703Z,1031.49
2019-02-12T10:12:43.684Z,1031.52
2019-02-12T10:13:43.677Z,1031.50
2019-02-12T10:14:43.650Z,1031.51
2019-02-12T10:15:43.628Z,1031.54
2019-02-12T10:16:43.605Z,1031.53
2019-02-12T10:17:43.574Z,1031.54
2019-02-12T10:18:43.555Z,1031.59
2019-02-12T10:19:43.527Z,1031.62
2019-02-12T10:20:43.499Z,1031.62
2019-02-12T10:21:43.501Z,1031.53
2019-02-12T10:22:43.457Z,1031.59
2019-02-12T10:23:43.473Z,1031.59
2019-02-12T10:24:43.416Z,1031.58
2019-02-12T10:25:43.408Z,1031.53
2019-02-12T10:26:43.373Z,1031.49
2019-02-12T10:27:43.356Z,1031.53
2019-02-12T10:28:48.837Z,1031.51
2019-02-12T10:29:43.306Z,1031.51
2019-02-12T10:30:43.299Z,1031.45
2019-02-12T10:31:43.280Z,1031.39
2019-02-12T10:32:43.244Z,1031.37
2019-02-12T10:33:43.267Z,1031.41
2019-02-12T10:34:43.195Z,1031.40
2019-02-12T10:35:43.179Z,1031.47
2019-02-12T10:36:43.157Z,1031.46
2019-02-12T10:37:43.396Z,1031.56
2019-02-12T10:38:43.127Z,1031.59
2019-02-12T10:39:43.194Z,1031.62
2019-02-12T10:40:43.076Z,1031.72
2019-02-12T10:41:43.095Z,1031.74
2019-02-12T10:42:43.026Z,1031.72
2019-02-12T10:43:43.072Z,1031.75
2019-02-12T10:44:42.990Z,1031.75
2019-02-12T10:45:42.964Z,1031.69
2019-02-12T10:46:42.944Z,1031.71
2019-02-12T10:47:42.931Z,1031.76
2019-02-12T10:48:42.892Z,1031.70
2019-02-12T10:49:42.878Z,1031.70
2019-02-12T10:50:42.853Z,1031.67
2019-02-12T10:51:42.914Z,1031.68
2019-02-12T10:52:42.830Z,1031.66
2019-02-12T10:53:42.808Z,1031.74
2019-02-12T10:54:42.780Z,1031.72
2019-02-12T10:55:42.754Z,1031.70
2019-02-12T10:56:42.722Z,1031.70
2019-02-12T10:57:42.710Z,1031.68
2019-02-12T10:58:42.709Z,1031.67
2019-02-12T10:59:42.679Z,1031.65
2019-02-12T11:00:42.637Z,1031.73
2019-02-12T11:01:42.716Z,1031.68
2019-02-12T11:02:42.602Z,1031.66
2019-02-12T11:03:42.597Z,1031.66
2019-02-12T11:04:42.557Z,1031.67
2019-02-12T11:05:42.565Z,1031.71
2019-02-12T11:06:42.515Z,1031.64
2019-02-12T11:07:42.490Z,1031.64
2019-02-12T11:08:42.503Z,1031.58
2019-02-12T11:09:42.885Z,1031.59
2019-02-12T11:10:42.431Z,1031.60
2019-02-12T11:11:42.415Z,1031.56
2019-02-12T11:12:42.393Z,1031.57
2019-02-12T11:13:42.375Z,1031.57
2019-02-12T11:14:42.363Z,1031.57
2019-02-12T11:15:42.383Z,1031.57
2019-02-12T11:16:42.324Z,1031.56
2019-02-12T11:17:42.284Z,1031.54
2019-02-12T11:18:42.265Z,1031.56
2019-02-12T11:19:42.331Z,1031.56
2019-02-12T11:20:42.219Z,1031.52
2019-02-12T11:21:42.204Z,1031.48
2019-02-12T11:22:42.202Z,1031.50
2019-02-12T11:23:42.160Z,1031.51
2019-02-12T11:24:42.141Z,1031.50
2019-02-12T11:25:42.142Z,1031.48
2019-02-12T11:26:42.101Z,1031.48
2019-02-12T11:27:42.074Z,1031.49
2019-02-12T11:28:42.055Z,1031.47
2019-02-12T11:29:42.055Z,1031.46
2019-02-12T11:30:42.027Z,1031.45
2019-02-12T11:31:41.992Z,1031.49
2019-02-12T11:32:41.999Z,1031.44
2019-02-12T11:33:41.951Z,1031.52
2019-02-12T11:34:41.934Z,1031.53
2019-02-12T11:35:41.919Z,1031.50
2019-02-12T11:36:41.891Z,1031.52
2019-02-12T11:37:41.869Z,1031.52
2019-02-12T11:38:41.865Z,1031.49
2019-02-12T11:39:41.827Z,1031.48
2019-02-12T11:40:41.840Z,1031.49
2019-02-12T11:41:41.806Z,1031.47
2019-02-12T11:42:41.763Z,1031.55
2019-02-12T11:43:41.747Z,1031.54
2019-02-12T11:44:41.739Z,1031.56
2019-02-12T11:45:41.714Z,1031.55
2019-02-12T11:46:41.702Z,1031.52
2019-02-12T11:47:41.711Z,1031.53
2019-02-12T11:48:41.657Z,1031.50
2019-02-12T11:49:41.642Z,1031.49
2019-02-12T11:50:41.609Z,1031.51
2019-02-12T11:51:41.581Z,1031.51
2019-02-12T11:52:41.566Z,1031.49
2019-02-12T11:53:41.561Z,1031.48
2019-02-12T11:54:43.722Z,1031.51
2019-02-12T11:55:41.544Z,1031.48
2019-02-12T11:56:41.508Z,1031.50
2019-02-12T11:57:41.465Z,1031.50
2019-02-12T11:58:41.447Z,1031.51
2019-02-12T11:59:41.447Z,1031.50
2019-02-12T12:00:41.403Z,1031.49
2019-02-12T12:01:41.387Z,1031.48
2019-02-12T12:02:42.174Z,1031.48
2019-02-12T12:03:41.344Z,1031.52
2019-02-12T12:04:41.345Z,1031.51
2019-02-12T12:05:41.326Z,1031.47